sensor_id;sensor_type;location;lat;lon;timestamp;pressure;altitude;pressure_sealevel;temperature;humidity
37860;BME280;23698;52.014;5.190;2023-01-28T00:01:33;102807.75;;;5.34;100.00
37860;BME280;23698;52.014;5.190;2023-01-28T00:04:20;102805.53;;;5.02;100.00
37860;BME280;23698;52.014;5.190;2023-01-28T00:07:07;102806.38;;;5.02;100.00
37860;BME280;23698;52.014;5.190;2023-01-28T00:09:53;102798.84;;;4.95;100.00
37860;BME280;23698;52.014;5.190;2023-01-28T00:12:42;102803.66;;;5.15;100.00
37860;BME280;23698;52.014;5.190;2023-01-28T00:15:29;102807.22;;;4.90;100.00
37860;BME280;23698;52.014;5.190;2023-01-28T00:18:15;102805.16;;;4.68;100.00
37860;BME280;23698;52.014;5.190;2023-01-28T00:21:05;102808.47;;;4.59;100.00
37860;BME280;23698;52.014;5.190;2023-01-28T00:23:53;102800.50;;;4.44;100.00
37860;BME280;23698;52.014;5.190;2023-01-28T00:26:40;102801.91;;;4.50;100.00
37860;BME280;23698;52.014;5.190;2023-01-28T00:29:29;102806.19;;;4.52;100.00
37860;BME280;23698;52.014;5.190;2023-01-28T00:32:16;102800.94;;;4.51;100.00
37860;BME280;23698;52.014;5.190;2023-01-28T00:35:03;102807.13;;;4.91;100.00
37860;BME280;23698;52.014;5.190;2023-01-28T00:37:50;102804.22;;;4.42;100.00
37860;BME280;23698;52.014;5.190;2023-01-28T00:40:37;102804.53;;;4.77;100.00
37860;BME280;23698;52.014;5.190;2023-01-28T00:43:24;102801.78;;;4.39;100.00
37860;BME280;23698;52.014;5.190;2023-01-28T00:46:12;102805.94;;;4.96;100.00
37860;BME280;23698;52.014;5.190;2023-01-28T00:49:00;102811.09;;;4.99;100.00
37860;BME280;23698;52.014;5.190;2023-01-28T00:51:47;102810.47;;;4.95;100.00
37860;BME280;23698;52.014;5.190;2023-01-28T00:54:34;102817.63;;;4.82;100.00
37860;BME280;23698;52.014;5.190;2023-01-28T00:57:22;102820.81;;;3.94;100.00
37860;BME280;23698;52.014;5.190;2023-01-28T01:00:10;102814.03;;;4.43;100.00
37860;BME280;23698;52.014;5.190;2023-01-28T01:02:58;102808.22;;;5.02;100.00
37860;BME280;23698;52.014;5.190;2023-01-28T01:05:46;102808.50;;;4.97;100.00
37860;BME280;23698;52.014;5.190;2023-01-28T01:08:33;102801.50;;;5.20;100.00
37860;BME280;23698;52.014;5.190;2023-01-28T01:11:24;102805.09;;;4.95;100.00
37860;BME280;23698;52.014;5.190;2023-01-28T01:14:11;102807.13;;;4.91;100.00
37860;BME280;23698;52.014;5.190;2023-01-28T01:16:58;102817.03;;;5.29;100.00
37860;BME280;23698;52.014;5.190;2023-01-28T01:19:46;102816.91;;;5.18;100.00
37860;BME280;23698;52.014;5.190;2023-01-28T01:22:33;102824.66;;;4.84;100.00
37860;BME280;23698;52.014;5.190;2023-01-28T01:25:20;102819.97;;;4.61;100.00
37860;BME280;23698;52.014;5.190;2023-01-28T01:28:07;102819.69;;;5.17;100.00
37860;BME280;23698;52.014;5.190;2023-01-28T01:30:58;102820.00;;;4.73;100.00
37860;BME280;23698;52.014;5.190;2023-01-28T01:33:48;102820.34;;;4.42;100.00
37860;BME280;23698;52.014;5.190;2023-01-28T01:36:36;102814.19;;;4.80;100.00
37860;BME280;23698;52.014;5.190;2023-01-28T01:39:23;102830.75;;;4.86;100.00
37860;BME280;23698;52.014;5.190;2023-01-28T01:42:12;102830.88;;;4.85;100.00
37860;BME280;23698;52.014;5.190;2023-01-28T01:45:01;102837.53;;;4.92;100.00
37860;BME280;23698;52.014;5.190;2023-01-28T01:47:58;102842.59;;;5.09;100.00
37860;BME280;23698;52.014;5.190;2023-01-28T01:50:50;102850.09;;;4.79;100.00
37860;BME280;23698;52.014;5.190;2023-01-28T01:53:41;102847.00;;;4.85;100.00
37860;BME280;23698;52.014;5.190;2023-01-28T01:56:33;102856.34;;;4.79;100.00
37860;BME280;23698;52.014;5.190;2023-01-28T01:59:23;102858.94;;;4.81;100.00
37860;BME280;23698;52.014;5.190;2023-01-28T02:02:11;102860.44;;;4.45;100.00
37860;BME280;23698;52.014;5.190;2023-01-28T02:05:01;102859.63;;;4.57;100.00
37860;BME280;23698;52.014;5.190;2023-01-28T02:07:50;102848.31;;;4.52;100.00
37860;BME280;23698;52.014;5.190;2023-01-28T02:10:40;102851.06;;;4.65;100.00
37860;BME280;23698;52.014;5.190;2023-01-28T02:13:30;102845.81;;;4.49;100.00
37860;BME280;23698;52.014;5.190;2023-01-28T02:16:19;102851.91;;;4.78;100.00
37860;BME280;23698;52.014;5.190;2023-01-28T02:19:06;102850.69;;;4.29;100.00
37860;BME280;23698;52.014;5.190;2023-01-28T02:22:06;102844.31;;;4.18;100.00
37860;BME280;23698;52.014;5.190;2023-01-28T02:25:11;102840.22;;;4.12;100.00
37860;BME280;23698;52.014;5.190;2023-01-28T02:28:19;102841.94;;;4.13;100.00
37860;BME280;23698;52.014;5.190;2023-01-28T02:31:11;102844.53;;;4.42;100.00
37860;BME280;23698;52.014;5.190;2023-01-28T02:34:05;102850.81;;;4.28;100.00
37860;BME280;23698;52.014;5.190;2023-01-28T02:36:58;102860.53;;;4.43;100.00
37860;BME280;23698;52.014;5.190;2023-01-28T02:39:51;102861.63;;;5.06;100.00
37860;BME280;23698;52.014;5.190;2023-01-28T02:42:40;102867.75;;;4.96;100.00
37860;BME280;23698;52.014;5.190;2023-01-28T02:45:31;102864.44;;;5.18;100.00
37860;BME280;23698;52.014;5.190;2023-01-28T02:48:32;102868.53;;;5.10;100.00
37860;BME280;23698;52.014;5.190;2023-01-28T02:51:28;102867.00;;;4.81;100.00
37860;BME280;23698;52.014;5.190;2023-01-28T02:54:26;102872.75;;;4.75;100.00
37860;BME280;23698;52.014;5.190;2023-01-28T02:57:26;102872.47;;;4.92;100.00
37860;BME280;23698;52.014;5.190;2023-01-28T03:00:18;102873.88;;;4.98;100.00
37860;BME280;23698;52.014;5.190;2023-01-28T03:03:14;102864.44;;;5.18;100.00
37860;BME280;23698;52.014;5.190;2023-01-28T03:06:05;102857.03;;;5.34;100.00
37860;BME280;23698;52.014;5.190;2023-01-28T03:08:56;102859.59;;;5.36;100.00
37860;BME280;23698;52.014;5.190;2023-01-28T03:12:04;102855.06;;;4.98;100.00
37860;BME280;23698;52.014;5.190;2023-01-28T03:15:13;102858.09;;;5.19;100.00
37860;BME280;23698;52.014;5.190;2023-01-28T03:18:24;102865.75;;;5.25;100.00
37860;BME280;23698;52.014;5.190;2023-01-28T03:21:31;102864.00;;;4.98;100.00
37860;BME280;23698;52.014;5.190;2023-01-28T03:24:43;102863.13;;;4.85;100.00
37860;BME280;23698;52.014;5.190;2023-01-28T03:27:52;102854.41;;;4.94;100.00
37860;BME280;23698;52.014;5.190;2023-01-28T03:31:03;102864.97;;;4.97;100.00
37860;BME280;23698;52.014;5.190;2023-01-28T03:34:14;102851.81;;;4.40;100.00
37860;BME280;23698;52.014;5.190;2023-01-28T03:37:18;102853.09;;;4.74;100.00
37860;BME280;23698;52.014;5.190;2023-01-28T03:40:10;102850.44;;;4.87;100.00
37860;BME280;23698;52.014;5.190;2023-01-28T03:42:57;102853.66;;;4.79;100.00
37860;BME280;23698;52.014;5.190;2023-01-28T03:45:51;102843.91;;;4.24;100.00
37860;BME280;23698;52.014;5.190;2023-01-28T03:48:40;102840.81;;;4.57;100.00
37860;BME280;23698;52.014;5.190;2023-01-28T03:51:30;102835.66;;;4.27;100.00
37860;BME280;23698;52.014;5.190;2023-01-28T03:54:16;102843.56;;;4.43;100.00
37860;BME280;23698;52.014;5.190;2023-01-28T03:57:03;102853.75;;;4.78;100.00
37860;BME280;23698;52.014;5.190;2023-01-28T03:59:51;102855.53;;;4.51;100.00
37860;BME280;23698;52.014;5.190;2023-01-28T04:02:39;102857.22;;;4.52;100.00
37860;BME280;23698;52.014;5.190;2023-01-28T04:05:29;102860.88;;;5.04;100.00
37860;BME280;23698;52.014;5.190;2023-01-28T04:08:18;102861.81;;;4.78;100.00
37860;BME280;23698;52.014;5.190;2023-01-28T04:11:22;102867.31;;;4.89;100.00
37860;BME280;23698;52.014;5.190;2023-01-28T04:14:10;102860.59;;;4.29;100.00
37860;BME280;23698;52.014;5.190;2023-01-28T04:17:17;102866.66;;;4.45;100.00
37860;BME280;23698;52.014;5.190;2023-01-28T04:20:04;102871.84;;;4.61;100.00
37860;BME280;23698;52.014;5.190;2023-01-28T04:22:51;102885.09;;;5.17;100.00
37860;BME280;23698;52.014;5.190;2023-01-28T04:25:41;102892.31;;;4.77;100.00
37860;BME280;23698;52.014;5.190;2023-01-28T04:28:27;102885.16;;;4.90;100.00
37860;BME280;23698;52.014;5.190;2023-01-28T04:31:15;102891.34;;;4.38;100.00
37860;BME280;23698;52.014;5.190;2023-01-28T04:34:12;102897.59;;;4.78;100.00
37860;BME280;23698;52.014;5.190;2023-01-28T04:37:09;102907.66;;;5.02;100.00
37860;BME280;23698;52.014;5.190;2023-01-28T04:40:14;102903.91;;;4.37;100.00
37860;BME280;23698;52.014;5.190;2023-01-28T04:43:17;102907.97;;;4.57;100.00
37860;BME280;23698;52.014;5.190;2023-01-28T04:46:27;102910.19;;;4.09;100.00
37860;BME280;23698;52.014;5.190;2023-01-28T04:49:30;102905.22;;;4.71;100.00
37860;BME280;23698;52.014;5.190;2023-01-28T04:52:30;102904.97;;;4.62;100.00
37860;BME280;23698;52.014;5.190;2023-01-28T04:55:30;102896.59;;;4.66;100.00
37860;BME280;23698;52.014;5.190;2023-01-28T04:58:19;102897.25;;;4.70;100.00
37860;BME280;23698;52.014;5.190;2023-01-28T05:01:09;102894.81;;;4.52;100.00
37860;BME280;23698;52.014;5.190;2023-01-28T05:03:55;102893.81;;;4.68;100.00
37860;BME280;23698;52.014;5.190;2023-01-28T05:06:44;102894.38;;;4.73;100.00
37860;BME280;23698;52.014;5.190;2023-01-28T05:09:36;102896.28;;;4.44;100.00
37860;BME280;23698;52.014;5.190;2023-01-28T05:12:23;102897.56;;;4.65;100.00
37860;BME280;23698;52.014;5.190;2023-01-28T05:15:13;102898.88;;;4.72;100.00
37860;BME280;23698;52.014;5.190;2023-01-28T05:18:01;102898.53;;;4.64;100.00
37860;BME280;23698;52.014;5.190;2023-01-28T05:20:52;102896.03;;;5.01;100.00
37860;BME280;23698;52.014;5.190;2023-01-28T05:23:39;102893.50;;;4.72;100.00
37860;BME280;23698;52.014;5.190;2023-01-28T05:26:26;102902.03;;;4.79;100.00
37860;BME280;23698;52.014;5.190;2023-01-28T05:29:13;102898.63;;;3.94;100.00
37860;BME280;23698;52.014;5.190;2023-01-28T05:32:01;102899.59;;;4.34;100.00
37860;BME280;23698;52.014;5.190;2023-01-28T05:34:49;102900.00;;;3.72;100.00
37860;BME280;23698;52.014;5.190;2023-01-28T05:37:35;102896.44;;;4.28;100.00
37860;BME280;23698;52.014;5.190;2023-01-28T05:40:22;102896.91;;;4.34;100.00
37860;BME280;23698;52.014;5.190;2023-01-28T05:43:09;102911.41;;;4.59;100.00
37860;BME280;23698;52.014;5.190;2023-01-28T05:46:01;102910.22;;;4.90;100.00
37860;BME280;23698;52.014;5.190;2023-01-28T05:49:19;102907.16;;;4.69;100.00
37860;BME280;23698;52.014;5.190;2023-01-28T05:52:26;102907.25;;;3.99;100.00
37860;BME280;23698;52.014;5.190;2023-01-28T05:55:14;102894.03;;;4.38;100.00
37860;BME280;23698;52.014;5.190;2023-01-28T05:58:00;102898.50;;;4.10;100.00
37860;BME280;23698;52.014;5.190;2023-01-28T06:00:47;102903.81;;;3.97;100.00
37860;BME280;23698;52.014;5.190;2023-01-28T06:03:39;102901.63;;;3.61;100.00
37860;BME280;23698;52.014;5.190;2023-01-28T06:06:28;102907.63;;;3.93;100.00
37860;BME280;23698;52.014;5.190;2023-01-28T06:09:15;102902.63;;;4.15;100.00
37860;BME280;23698;52.014;5.190;2023-01-28T06:12:01;102905.69;;;4.24;100.00
37860;BME280;23698;52.014;5.190;2023-01-28T06:14:54;102907.78;;;4.19;100.00
37860;BME280;23698;52.014;5.190;2023-01-28T06:18:06;102909.00;;;3.57;100.00
37860;BME280;23698;52.014;5.190;2023-01-28T06:20:53;102910.97;;;3.96;100.00
37860;BME280;23698;52.014;5.190;2023-01-28T06:23:40;102910.88;;;3.98;100.00
37860;BME280;23698;52.014;5.190;2023-01-28T06:26:27;102902.88;;;3.84;100.00
37860;BME280;23698;52.014;5.190;2023-01-28T06:29:14;102912.44;;;4.02;100.00
37860;BME280;23698;52.014;5.190;2023-01-28T06:32:01;102913.03;;;3.78;100.00
37860;BME280;23698;52.014;5.190;2023-01-28T06:34:48;102912.22;;;4.05;100.00
37860;BME280;23698;52.014;5.190;2023-01-28T06:37:35;102909.56;;;3.91;100.00
37860;BME280;23698;52.014;5.190;2023-01-28T06:40:23;102912.25;;;3.91;100.00
37860;BME280;23698;52.014;5.190;2023-01-28T06:43:10;102919.56;;;3.60;100.00
37860;BME280;23698;52.014;5.190;2023-01-28T06:45:57;102919.72;;;3.71;100.00
37860;BME280;23698;52.014;5.190;2023-01-28T06:48:44;102922.78;;;3.65;100.00
37860;BME280;23698;52.014;5.190;2023-01-28T06:51:31;102926.91;;;3.56;100.00
37860;BME280;23698;52.014;5.190;2023-01-28T06:54:17;102918.97;;;3.55;100.00
37860;BME280;23698;52.014;5.190;2023-01-28T06:57:05;102922.22;;;3.74;100.00
37860;BME280;23698;52.014;5.190;2023-01-28T06:59:52;102935.25;;;3.81;100.00
37860;BME280;23698;52.014;5.190;2023-01-28T07:02:38;102938.34;;;3.60;100.00
37860;BME280;23698;52.014;5.190;2023-01-28T07:05:25;102939.66;;;3.67;100.00
37860;BME280;23698;52.014;5.190;2023-01-28T07:08:12;102930.47;;;3.71;100.00
37860;BME280;23698;52.014;5.190;2023-01-28T07:10:58;102935.16;;;3.68;100.00
37860;BME280;23698;52.014;5.190;2023-01-28T07:13:47;102938.03;;;3.65;100.00
37860;BME280;23698;52.014;5.190;2023-01-28T07:16:33;102930.63;;;3.39;100.00
37860;BME280;23698;52.014;5.190;2023-01-28T07:19:20;102937.59;;;3.28;100.00
37860;BME280;23698;52.014;5.190;2023-01-28T07:22:06;102931.44;;;3.11;100.00
37860;BME280;23698;52.014;5.190;2023-01-28T07:24:53;102928.44;;;3.46;100.00
37860;BME280;23698;52.014;5.190;2023-01-28T07:27:45;102942.63;;;3.48;100.00
37860;BME280;23698;52.014;5.190;2023-01-28T07:30:33;102949.16;;;3.73;100.00
37860;BME280;23698;52.014;5.190;2023-01-28T07:33:19;102946.19;;;3.92;100.00
37860;BME280;23698;52.014;5.190;2023-01-28T07:36:07;102957.19;;;3.87;100.00
37860;BME280;23698;52.014;5.190;2023-01-28T07:38:53;102951.34;;;3.81;100.00
37860;BME280;23698;52.014;5.190;2023-01-28T07:41:40;102954.31;;;3.90;100.00
37860;BME280;23698;52.014;5.190;2023-01-28T07:44:28;102956.81;;;3.65;100.00
37860;BME280;23698;52.014;5.190;2023-01-28T07:47:16;102957.47;;;3.83;100.00
37860;BME280;23698;52.014;5.190;2023-01-28T07:50:04;102970.13;;;3.81;100.00
37860;BME280;23698;52.014;5.190;2023-01-28T07:52:51;102968.38;;;3.65;100.00
37860;BME280;23698;52.014;5.190;2023-01-28T07:55:37;102956.72;;;3.81;100.00
37860;BME280;23698;52.014;5.190;2023-01-28T07:58:24;102971.66;;;4.13;100.00
37860;BME280;23698;52.014;5.190;2023-01-28T08:01:11;102971.88;;;3.67;100.00
37860;BME280;23698;52.014;5.190;2023-01-28T08:03:59;102971.19;;;3.92;100.00
37860;BME280;23698;52.014;5.190;2023-01-28T08:06:46;102962.38;;;3.76;100.00
37860;BME280;23698;52.014;5.190;2023-01-28T08:09:32;102977.41;;;3.93;100.00
37860;BME280;23698;52.014;5.190;2023-01-28T08:12:19;102978.19;;;3.95;100.00
37860;BME280;23698;52.014;5.190;2023-01-28T08:15:07;102976.84;;;4.16;100.00
37860;BME280;23698;52.014;5.190;2023-01-28T08:17:55;102977.44;;;4.07;100.00
37860;BME280;23698;52.014;5.190;2023-01-28T08:20:43;102980.38;;;4.17;100.00
37860;BME280;23698;52.014;5.190;2023-01-28T08:23:31;102989.09;;;4.21;100.00
37860;BME280;23698;52.014;5.190;2023-01-28T08:26:18;102992.47;;;3.95;100.00
37860;BME280;23698;52.014;5.190;2023-01-28T08:29:05;102987.78;;;3.85;100.00
37860;BME280;23698;52.014;5.190;2023-01-28T08:31:52;102994.88;;;4.14;100.00
37860;BME280;23698;52.014;5.190;2023-01-28T08:34:39;102992.06;;;3.87;100.00
37860;BME280;23698;52.014;5.190;2023-01-28T08:37:26;102991.22;;;3.87;100.00
37860;BME280;23698;52.014;5.190;2023-01-28T08:40:13;103005.13;;;3.93;100.00
37860;BME280;23698;52.014;5.190;2023-01-28T08:43:01;103010.94;;;4.00;100.00
37860;BME280;23698;52.014;5.190;2023-01-28T08:45:47;103000.25;;;4.14;100.00
37860;BME280;23698;52.014;5.190;2023-01-28T08:48:34;103023.09;;;3.63;100.00
37860;BME280;23698;52.014;5.190;2023-01-28T08:51:22;103016.72;;;3.80;100.00
37860;BME280;23698;52.014;5.190;2023-01-28T08:54:10;103022.25;;;4.05;100.00
37860;BME280;23698;52.014;5.190;2023-01-28T08:56:57;103027.94;;;4.15;100.00
37860;BME280;23698;52.014;5.190;2023-01-28T08:59:43;103033.84;;;4.49;100.00
37860;BME280;23698;52.014;5.190;2023-01-28T09:02:30;103032.91;;;4.07;100.00
37860;BME280;23698;52.014;5.190;2023-01-28T09:05:17;103044.91;;;3.87;100.00
37860;BME280;23698;52.014;5.190;2023-01-28T09:08:06;103037.13;;;4.40;100.00
37860;BME280;23698;52.014;5.190;2023-01-28T09:10:55;103038.84;;;4.55;100.00
37860;BME280;23698;52.014;5.190;2023-01-28T09:13:41;103049.69;;;4.53;100.00
37860;BME280;23698;52.014;5.190;2023-01-28T09:16:28;103042.56;;;4.67;100.00
37860;BME280;23698;52.014;5.190;2023-01-28T09:19:14;103049.41;;;5.00;100.00
37860;BME280;23698;52.014;5.190;2023-01-28T09:22:02;103053.31;;;5.08;100.00
37860;BME280;23698;52.014;5.190;2023-01-28T09:24:48;103056.94;;;5.07;100.00
37860;BME280;23698;52.014;5.190;2023-01-28T09:27:36;103069.72;;;4.62;100.00
37860;BME280;23698;52.014;5.190;2023-01-28T09:30:23;103054.28;;;4.23;100.00
37860;BME280;23698;52.014;5.190;2023-01-28T09:33:10;103054.31;;;4.79;100.00
37860;BME280;23698;52.014;5.190;2023-01-28T09:35:58;103066.53;;;4.84;100.00
37860;BME280;23698;52.014;5.190;2023-01-28T09:38:45;103067.97;;;5.17;100.00
37860;BME280;23698;52.014;5.190;2023-01-28T09:41:38;103057.56;;;4.84;100.00
37860;BME280;23698;52.014;5.190;2023-01-28T09:44:43;103076.78;;;5.19;100.00
37860;BME280;23698;52.014;5.190;2023-01-28T09:47:42;103081.53;;;5.28;100.00
37860;BME280;23698;52.014;5.190;2023-01-28T09:50:31;103075.31;;;5.28;100.00
37860;BME280;23698;52.014;5.190;2023-01-28T09:53:22;103075.22;;;5.29;100.00
37860;BME280;23698;52.014;5.190;2023-01-28T09:56:13;103074.88;;;5.34;100.00
37860;BME280;23698;52.014;5.190;2023-01-28T09:59:13;103075.13;;;5.44;100.00
37860;BME280;23698;52.014;5.190;2023-01-28T10:02:19;103081.78;;;5.11;100.00
37860;BME280;23698;52.014;5.190;2023-01-28T10:05:16;103071.72;;;5.55;100.00
37860;BME280;23698;52.014;5.190;2023-01-28T10:08:17;103097.50;;;5.44;100.00
37860;BME280;23698;52.014;5.190;2023-01-28T10:11:16;103097.38;;;5.06;100.00
37860;BME280;23698;52.014;5.190;2023-01-28T10:14:10;103101.38;;;5.40;100.00
37860;BME280;23698;52.014;5.190;2023-01-28T10:17:05;103096.19;;;5.10;100.00
37860;BME280;23698;52.014;5.190;2023-01-28T10:19:59;103098.47;;;5.43;100.00
37860;BME280;23698;52.014;5.190;2023-01-28T10:22:50;103094.06;;;5.42;100.00
37860;BME280;23698;52.014;5.190;2023-01-28T10:25:38;103098.22;;;5.34;100.00
37860;BME280;23698;52.014;5.190;2023-01-28T10:28:29;103092.59;;;5.64;100.00
37860;BME280;23698;52.014;5.190;2023-01-28T10:31:16;103086.84;;;5.43;100.00
37860;BME280;23698;52.014;5.190;2023-01-28T10:34:04;103076.56;;;5.62;100.00
37860;BME280;23698;52.014;5.190;2023-01-28T10:36:51;103085.28;;;5.66;100.00
37860;BME280;23698;52.014;5.190;2023-01-28T10:39:38;103088.75;;;5.68;100.00
37860;BME280;23698;52.014;5.190;2023-01-28T10:42:27;103083.69;;;4.82;100.00
37860;BME280;23698;52.014;5.190;2023-01-28T10:45:18;103076.06;;;5.30;100.00
37860;BME280;23698;52.014;5.190;2023-01-28T10:48:10;103084.13;;;5.70;100.00
37860;BME280;23698;52.014;5.190;2023-01-28T10:51:02;103083.66;;;6.29;100.00
37860;BME280;23698;52.014;5.190;2023-01-28T10:53:50;103073.72;;;6.42;100.00
37860;BME280;23698;52.014;5.190;2023-01-28T10:56:36;103078.00;;;6.58;100.00
37860;BME280;23698;52.014;5.190;2023-01-28T10:59:26;103068.25;;;6.31;100.00
37860;BME280;23698;52.014;5.190;2023-01-28T11:02:24;103060.56;;;6.51;100.00
37860;BME280;23698;52.014;5.190;2023-01-28T11:05:16;103063.97;;;7.03;100.00
37860;BME280;23698;52.014;5.190;2023-01-28T11:08:12;103065.03;;;7.00;100.00
37860;BME280;23698;52.014;5.190;2023-01-28T11:10:59;103040.38;;;6.93;100.00
37860;BME280;23698;52.014;5.190;2023-01-28T11:13:49;103038.84;;;6.78;100.00
37860;BME280;23698;52.014;5.190;2023-01-28T11:16:38;103017.88;;;6.57;100.00
37860;BME280;23698;52.014;5.190;2023-01-28T11:19:30;103021.81;;;6.15;100.00
37860;BME280;23698;52.014;5.190;2023-01-28T11:22:23;103012.41;;;6.70;100.00
37860;BME280;23698;52.014;5.190;2023-01-28T11:25:18;103012.44;;;5.95;100.00
37860;BME280;23698;52.014;5.190;2023-01-28T11:28:16;103001.31;;;6.25;100.00
37860;BME280;23698;52.014;5.190;2023-01-28T11:31:04;102984.63;;;6.70;100.00
37860;BME280;23698;52.014;5.190;2023-01-28T11:33:53;102986.31;;;6.47;100.00
37860;BME280;23698;52.014;5.190;2023-01-28T11:36:49;102993.03;;;7.13;100.00
37860;BME280;23698;52.014;5.190;2023-01-28T11:39:36;103000.47;;;5.86;100.00
37860;BME280;23698;52.014;5.190;2023-01-28T11:42:24;102993.19;;;6.51;100.00
37860;BME280;23698;52.014;5.190;2023-01-28T11:45:14;102965.34;;;6.87;100.00
37860;BME280;23698;52.014;5.190;2023-01-28T11:48:11;102974.97;;;7.03;100.00
37860;BME280;23698;52.014;5.190;2023-01-28T11:51:03;102974.19;;;6.89;100.00
37860;BME280;23698;52.014;5.190;2023-01-28T11:53:52;102976.72;;;7.50;100.00
37860;BME280;23698;52.014;5.190;2023-01-28T11:56:52;102984.63;;;6.94;100.00
37860;BME280;23698;52.014;5.190;2023-01-28T11:59:55;102996.28;;;7.06;100.00
37860;BME280;23698;52.014;5.190;2023-01-28T12:02:50;102997.53;;;7.37;100.00
37860;BME280;23698;52.014;5.190;2023-01-28T12:05:47;103000.53;;;7.21;100.00
37860;BME280;23698;52.014;5.190;2023-01-28T12:08:40;103019.28;;;7.11;100.00
37860;BME280;23698;52.014;5.190;2023-01-28T12:11:36;103007.84;;;7.08;100.00
37860;BME280;23698;52.014;5.190;2023-01-28T12:15:07;103003.72;;;6.91;100.00
37860;BME280;23698;52.014;5.190;2023-01-28T12:18:11;103003.28;;;7.32;100.00
37860;BME280;23698;52.014;5.190;2023-01-28T12:21:03;102989.81;;;7.32;100.00
37860;BME280;23698;52.014;5.190;2023-01-28T12:24:02;103013.25;;;7.08;100.00
37860;BME280;23698;52.014;5.190;2023-01-28T12:27:02;103009.13;;;7.26;100.00
37860;BME280;23698;52.014;5.190;2023-01-28T12:30:00;103012.19;;;7.68;100.00
37860;BME280;23698;52.014;5.190;2023-01-28T12:33:01;103014.88;;;7.22;100.00
37860;BME280;23698;52.014;5.190;2023-01-28T12:35:58;103025.91;;;6.70;100.00
37860;BME280;23698;52.014;5.190;2023-01-28T12:38:59;103015.06;;;6.83;100.00
37860;BME280;23698;52.014;5.190;2023-01-28T12:41:52;103015.28;;;7.04;100.00
37860;BME280;23698;52.014;5.190;2023-01-28T12:44:45;103000.69;;;6.95;100.00
37860;BME280;23698;52.014;5.190;2023-01-28T12:47:37;103001.03;;;7.26;100.00
37860;BME280;23698;52.014;5.190;2023-01-28T12:50:27;102992.28;;;7.58;100.00
37860;BME280;23698;52.014;5.190;2023-01-28T12:53:22;102990.31;;;7.49;100.00
37860;BME280;23698;52.014;5.190;2023-01-28T12:56:14;102983.88;;;7.85;100.00
37860;BME280;23698;52.014;5.190;2023-01-28T12:59:04;102982.41;;;7.81;100.00
37860;BME280;23698;52.014;5.190;2023-01-28T13:02:03;102964.00;;;7.28;100.00
37860;BME280;23698;52.014;5.190;2023-01-28T13:05:01;102958.50;;;6.70;100.00
37860;BME280;23698;52.014;5.190;2023-01-28T13:07:53;102942.03;;;6.86;100.00
37860;BME280;23698;52.014;5.190;2023-01-28T13:10:43;102937.00;;;6.33;100.00
37860;BME280;23698;52.014;5.190;2023-01-28T13:13:32;102921.69;;;6.58;100.00
37860;BME280;23698;52.014;5.190;2023-01-28T13:16:19;102920.50;;;6.38;100.00
37860;BME280;23698;52.014;5.190;2023-01-28T13:19:23;102914.91;;;6.28;100.00
37860;BME280;23698;52.014;5.190;2023-01-28T13:22:25;102903.97;;;6.91;100.00
37860;BME280;23698;52.014;5.190;2023-01-28T13:25:18;102907.03;;;6.38;100.00
37860;BME280;23698;52.014;5.190;2023-01-28T13:28:26;102916.06;;;6.37;100.00
37860;BME280;23698;52.014;5.190;2023-01-28T13:31:15;102914.66;;;6.68;100.00
37860;BME280;23698;52.014;5.190;2023-01-28T13:34:05;102930.59;;;6.95;100.00
37860;BME280;23698;52.014;5.190;2023-01-28T13:36:52;102921.28;;;7.11;100.00
37860;BME280;23698;52.014;5.190;2023-01-28T13:39:45;102921.16;;;7.12;100.00
37860;BME280;23698;52.014;5.190;2023-01-28T13:42:33;102919.41;;;6.40;100.00
37860;BME280;23698;52.014;5.190;2023-01-28T13:45:22;102918.31;;;6.67;100.00
37860;BME280;23698;52.014;5.190;2023-01-28T13:48:22;102922.94;;;6.41;100.00
37860;BME280;23698;52.014;5.190;2023-01-28T13:51:17;102921.47;;;6.85;100.00
37860;BME280;23698;52.014;5.190;2023-01-28T13:54:07;102927.28;;;7.03;100.00
37860;BME280;23698;52.014;5.190;2023-01-28T13:57:23;102923.53;;;6.57;100.00
37860;BME280;23698;52.014;5.190;2023-01-28T14:00:22;102920.25;;;6.41;100.00
37860;BME280;23698;52.014;5.190;2023-01-28T14:03:32;102913.72;;;6.56;100.00
37860;BME280;23698;52.014;5.190;2023-01-28T14:06:56;102912.53;;;5.99;100.00
37860;BME280;23698;52.014;5.190;2023-01-28T14:09:58;102907.47;;;6.56;100.00
37860;BME280;23698;52.014;5.190;2023-01-28T14:13:04;102920.88;;;6.45;100.00
37860;BME280;23698;52.014;5.190;2023-01-28T14:16:08;102940.34;;;6.61;100.00
37860;BME280;23698;52.014;5.190;2023-01-28T14:19:01;102947.25;;;6.28;100.00
37860;BME280;23698;52.014;5.190;2023-01-28T14:21:48;102949.06;;;6.65;100.00
37860;BME280;23698;52.014;5.190;2023-01-28T14:24:35;102953.13;;;6.70;100.00
37860;BME280;23698;52.014;5.190;2023-01-28T14:27:26;102958.84;;;6.41;100.00
37860;BME280;23698;52.014;5.190;2023-01-28T14:30:22;102943.28;;;6.21;100.00
37860;BME280;23698;52.014;5.190;2023-01-28T14:33:12;102934.22;;;6.22;100.00
37860;BME280;23698;52.014;5.190;2023-01-28T14:35:59;102923.81;;;6.04;100.00
37860;BME280;23698;52.014;5.190;2023-01-28T14:38:45;102920.72;;;5.98;100.00
37860;BME280;23698;52.014;5.190;2023-01-28T14:41:32;102909.00;;;5.73;100.00
37860;BME280;23698;52.014;5.190;2023-01-28T14:44:27;102908.09;;;5.85;100.00
37860;BME280;23698;52.014;5.190;2023-01-28T14:47:27;102916.72;;;5.78;100.00
37860;BME280;23698;52.014;5.190;2023-01-28T14:50:32;102919.72;;;5.86;100.00
37860;BME280;23698;52.014;5.190;2023-01-28T14:53:31;102916.09;;;5.61;100.00
37860;BME280;23698;52.014;5.190;2023-01-28T14:56:33;102910.91;;;5.71;100.00
37860;BME280;23698;52.014;5.190;2023-01-28T14:59:25;102913.44;;;6.24;100.00